L'astree — FAA2819 — position and weather

sailwx.info

Track history (hours):
 
Tides and Currents Weather Stations Pressure Air Temp Water Temp Dewpoint Dewpoint Depression Visibility Wind Speed Wind Dir Waves Ship Positions

L'astree

Last reported at 2017-Nov-29 01:16 UTC. Time now 2018-Jun-21 06:32 UTC.
Position N 28°03' W 014°13'.
Warning: this ship's position is months out of date.

Length 20 m.

Type: Ship. MMSI: 227106210.

Date/timePositionNaut miles runAvg speedWind from/ knotsBaromVisibWave heightAir tempDewpointWater temp
2017-Nov-29 01:16N 28°03' W 014°13'2 5.9
2017-Nov-29 00:55N 28°02' W 014°15'3 5.6
2017-Nov-29 00:25N 28°01' W 014°18'2 5.1
2017-Nov-29 00:00N 27°60' W 014°20'2 4.6
2017-Nov-28 23:30N 27°59' W 014°22'2 4.7
2017-Nov-28 23:00N 27°57' W 014°25'2 4.9
2017-Nov-28 22:30N 27°56' W 014°27'2 5.0
2017-Nov-28 22:00N 27°55' W 014°30'3 5.3
2017-Nov-28 21:30N 27°54' W 014°32'3 5.4
2017-Nov-28 20:52N 27°52' W 014°36'2 5.3
2017-Nov-28 20:30N 27°51' W 014°38'5 5.8
2017-Nov-28 19:42N 27°49' W 014°42'1 5.6
2017-Nov-28 19:30N 27°48' W 014°43'3 5.8
2017-Nov-28 19:00N 27°47' W 014°46'2 2.9
2017-Nov-28 18:28N 27°46' W 014°47'2 3.6
2017-Nov-28 18:00N 27°45' W 014°49'2 3.9
2017-Nov-28 17:27N 27°44' W 014°51'  
Track history (hours):
 
Tides and Currents Weather Stations Pressure Air Temp Water Temp Dewpoint Dewpoint Depression Visibility Wind Speed Wind Dir Waves Ship Positions

L'astree

Last reported at 2017-Nov-29 01:16 UTC. Time now 2018-Jun-21 06:32 UTC.
Position N 28°03' W 014°13'.
Warning: this ship's position is months out of date.

Length 20 m.

Type: Ship. MMSI: 227106210.

Date/timePositionNaut miles runAvg speedWind from/ knotsBaromVisibWave heightAir tempDewpointWater temp
2017-Nov-29 01:16N 28°03' W 014°13'2 5.9
2017-Nov-29 00:55N 28°02' W 014°15'3 5.6
2017-Nov-29 00:25N 28°01' W 014°18'2 5.1
2017-Nov-29 00:00N 27°60' W 014°20'2 4.6
2017-Nov-28 23:30N 27°59' W 014°22'2 4.7
2017-Nov-28 23:00N 27°57' W 014°25'2 4.9
2017-Nov-28 22:30N 27°56' W 014°27'2 5.0
2017-Nov-28 22:00N 27°55' W 014°30'3 5.3
2017-Nov-28 21:30N 27°54' W 014°32'3 5.4
2017-Nov-28 20:52N 27°52' W 014°36'2 5.3
2017-Nov-28 20:30N 27°51' W 014°38'5 5.8
2017-Nov-28 19:42N 27°49' W 014°42'1 5.6
2017-Nov-28 19:30N 27°48' W 014°43'3 5.8
2017-Nov-28 19:00N 27°47' W 014°46'2 2.9
2017-Nov-28 18:28N 27°46' W 014°47'2 3.6
2017-Nov-28 18:00N 27°45' W 014°49'2 3.9
2017-Nov-28 17:27N 27°44' W 014°51'  

Dump ship's entire track history